Time;durP1;ratioP1;P1;durP2;ratioP2;P2;SDS_P1;SDS_P2;PMS_P1;PMS_P2;Temp;Humidity;BMP_temperature;BMP_pressure;BME280_temperature;BME280_humidity;BME280_pressure;Samples;Min_cycle;Max_cycle;Signal;HPM_P1;HPM_P2
2021/08/14 00:01:59;;;;;;;3.35;1.77;;;;;;;;;;5024989;28;20036;-78
2021/08/14 00:04:26;;;;;;;4.03;2.00;;;;;;;;;;5011164;28;20029;-76
2021/08/14 00:06:53;;;;;;;8.15;6.82;;;;;;;;;;5019961;28;20045;-76
2021/08/14 00:09:20;;;;;;;7.07;4.78;;;;;;;;;;5019043;28;20033;-77
2021/08/14 00:11:47;;;;;;;5.55;3.58;;;;;;;;;;5009563;28;20557;-76
2021/08/14 00:14:16;;;;;;;5.85;2.92;;;;;;;;;;4994540;28;20519;-77
2021/08/14 00:16:46;;;;;;;5.85;2.97;;;;;;;;;;4995058;28;20033;-76
2021/08/14 00:19:15;;;;;;;4.43;2.30;;;;;;;;;;4992033;28;20068;-76
2021/08/14 00:21:45;;;;;;;3.60;1.98;;;;;;;;;;5002339;28;20065;-77
2021/08/14 00:24:14;;;;;;;6.63;2.70;;;;;;;;;;5005267;28;20040;-76
2021/08/14 00:26:44;;;;;;;4.85;3.20;;;;;;;;;;5017544;28;20053;-76
2021/08/14 00:29:12;;;;;;;5.35;3.47;;;;;;;;;;4982131;28;20411;-75
2021/08/14 00:31:41;;;;;;;6.55;3.58;;;;;;;;;;5016285;28;20038;-76
2021/08/14 00:34:08;;;;;;;5.88;3.47;;;;;;;;;;5019037;28;20053;-75
2021/08/14 00:36:35;;;;;;;9.32;8.30;;;;;;;;;;5018458;28;20041;-76
2021/08/14 00:39:04;;;;;;;7.95;5.43;;;;;;;;;;4996070;28;20138;-75
2021/08/14 00:41:35;;;;;;;;;;;;;;;;;;5021156;28;20044;-75
2021/08/14 00:44:04;;;;;;;9.23;4.78;;;;;;;;;;4977243;28;19993;-77
2021/08/14 00:46:35;;;;;;;6.70;3.97;;;;;;;;;;5011112;28;20116;-75
2021/08/14 00:49:03;;;;;;;4.70;2.97;;;;;;;;;;5001183;28;20523;-75
2021/08/14 00:51:30;;;;;;;4.45;2.38;;;;;;;;;;5014163;28;20091;-74
2021/08/14 00:53:57;;;;;;;4.00;2.50;;;;;;;;;;5000166;28;20474;-76
2021/08/14 00:56:26;;;;;;;6.13;3.15;;;;;;;;;;4995165;28;20049;-77
2021/08/14 00:58:54;;;;;;;5.90;3.78;;;;;;;;;;5009456;28;20135;-76
2021/08/14 01:01:27;;;;;;;7.00;4.63;;;;;;;;;;5012398;28;20045;-75
2021/08/14 01:03:57;;;;;;;3.45;2.30;;;;;;;;;;5014619;28;20167;-77
2021/08/14 01:06:27;;;;;;;6.00;2.92;;;;;;;;;;5021911;28;20041;-75
2021/08/14 01:08:57;;;;;;;;;;;;;;;;;;5000390;28;20049;-76
2021/08/14 01:11:25;;;;;;;5.05;2.40;;;;;;;;;;5019041;28;19935;-75
2021/08/14 01:13:54;;;;;;;4.43;1.85;;;;;;;;;;5019586;28;20114;-75
2021/08/14 01:16:22;;;;;;;4.07;1.70;;;;;;;;;;4992586;28;20052;-75
2021/08/14 01:18:52;;;;;;;7.18;2.88;;;;;;;;;;5026275;28;20041;-75
2021/08/14 01:21:23;;;;;;;7.00;3.83;;;;;;;;;;5009858;28;20189;-75
2021/08/14 01:23:58;;;;;;;7.68;3.47;;;;;;;;;;4985130;28;20037;-75
2021/08/14 01:26:25;;;;;;;7.18;3.53;;;;;;;;;;5004775;28;20496;-76
2021/08/14 01:28:54;;;;;;;10.43;4.25;;;;;;;;;;5001743;28;20052;-74
2021/08/14 01:31:21;;;;;;;5.80;3.17;;;;;;;;;;5001160;28;20033;-75
2021/08/14 01:33:48;;;;;;;4.68;2.40;;;;;;;;;;4996719;28;20033;-78
2021/08/14 01:36:17;;;;;;;4.72;1.67;;;;;;;;;;4965879;28;20482;-77
2021/08/14 01:38:54;;;;;;;3.78;2.03;;;;;;;;;;4984288;28;20042;-76
2021/08/14 01:41:22;;;;;;;6.55;4.70;;;;;;;;;;4962827;28;20067;-75
2021/08/14 01:44:10;;;;;;;11.50;5.05;;;;;;;;;;4989802;28;20044;-77
2021/08/14 01:46:42;;;;;;;6.65;4.88;;;;;;;;;;4981658;28;20044;-77
2021/08/14 01:49:09;;;;;;;12.10;10.82;;;;;;;;;;4996992;28;20054;-77
2021/08/14 01:51:38;;;;;;;5.60;3.22;;;;;;;;;;4999244;28;20088;-77
2021/08/14 01:54:06;;;;;;;5.10;2.30;;;;;;;;;;5009168;28;20038;-76
2021/08/14 01:56:34;;;;;;;9.95;2.63;;;;;;;;;;5003071;28;20056;-75
2021/08/14 01:59:01;;;;;;;5.18;2.05;;;;;;;;;;4981065;28;20057;-75
2021/08/14 02:01:30;;;;;;;3.92;1.88;;;;;;;;;;4975001;28;20046;-75
2021/08/14 02:03:59;;;;;;;5.13;1.90;;;;;;;;;;5023988;28;20038;-76
2021/08/14 02:06:28;;;;;;;3.78;1.70;;;;;;;;;;5016626;28;20132;-76
2021/08/14 02:08:59;;;;;;;3.45;1.60;;;;;;;;;;4992485;28;20091;-75
2021/08/14 02:11:35;;;;;;;4.90;2.50;;;;;;;;;;5001930;28;20072;-75
2021/08/14 02:14:04;;;;;;;3.85;2.10;;;;;;;;;;4975467;28;20037;-76
2021/08/14 02:16:35;;;;;;;4.47;2.42;;;;;;;;;;5006924;28;20044;-77
2021/08/14 02:19:04;;;;;;;3.28;2.05;;;;;;;;;;5008505;28;20399;-75
2021/08/14 02:21:31;;;;;;;5.53;2.97;;;;;;;;;;4994755;28;20458;-75
2021/08/14 02:23:59;;;;;;;4.90;2.78;;;;;;;;;;5017961;28;20107;-78
2021/08/14 02:26:27;;;;;;;5.85;2.15;;;;;;;;;;5017043;28;20069;-75
2021/08/14 02:28:54;;;;;;;4.40;2.03;;;;;;;;;;5028650;28;20056;-75
2021/08/14 02:31:21;;;;;;;4.07;2.20;;;;;;;;;;5005617;28;20053;-76
2021/08/14 02:33:48;;;;;;;5.45;2.50;;;;;;;;;;5031621;28;20030;-76
2021/08/14 02:36:15;;;;;;;4.63;2.65;;;;;;;;;;5003275;28;20116;-75
2021/08/14 02:38:42;;;;;;;9.30;5.13;;;;;;;;;;5019961;28;20501;-75
2021/08/14 02:41:10;;;;;;;5.90;4.07;;;;;;;;;;5022922;28;20045;-76
2021/08/14 02:43:37;;;;;;;8.00;3.95;;;;;;;;;;5020996;28;20065;-76
2021/08/14 02:46:05;;;;;;;8.57;4.50;;;;;;;;;;5023410;28;20049;-75
2021/08/14 02:48:34;;;;;;;9.50;5.10;;;;;;;;;;4995158;28;20077;-75
2021/08/14 02:51:01;;;;;;;10.90;6.30;;;;;;;;;;5012350;28;20040;-75
2021/08/14 02:53:28;;;;;;;8.60;5.75;;;;;;;;;;5023166;28;20041;-75
2021/08/14 02:55:55;;;;;;;11.23;6.22;;;;;;;;;;5013406;28;20480;-77
2021/08/14 02:58:22;;;;;;;12.18;6.63;;;;;;;;;;5002848;28;20140;-76
2021/08/14 03:00:49;;;;;;;13.00;7.97;;;;;;;;;;5003631;28;20038;-76
2021/08/14 03:03:16;;;;;;;16.00;10.43;;;;;;;;;;5003178;28;20076;-77
2021/08/14 03:05:43;;;;;;;16.98;10.15;;;;;;;;;;5011648;28;20503;-75
2021/08/14 03:08:11;;;;;;;14.15;7.78;;;;;;;;;;5022825;28;20038;-76
2021/08/14 03:10:39;;;;;;;9.90;5.95;;;;;;;;;;5022321;28;20571;-76
2021/08/14 03:13:07;;;;;;;9.57;5.32;;;;;;;;;;5022608;28;20042;-77
2021/08/14 03:15:34;;;;;;;12.60;7.15;;;;;;;;;;5022538;28;20510;-78
2021/08/14 03:18:01;;;;;;;9.35;5.30;;;;;;;;;;5022741;28;20052;-76
2021/08/14 03:20:29;;;;;;;6.50;2.80;;;;;;;;;;5022945;28;20041;-75
2021/08/14 03:22:56;;;;;;;3.75;2.10;;;;;;;;;;5025251;28;20125;-77
2021/08/14 03:25:23;;;;;;;4.63;1.88;;;;;;;;;;5024496;28;20046;-77
2021/08/14 03:27:51;;;;;;;4.05;2.47;;;;;;;;;;5026565;28;20042;-75
2021/08/14 03:30:18;;;;;;;4.65;2.58;;;;;;;;;;5026102;28;20060;-75
2021/08/14 03:32:46;;;;;;;6.00;2.53;;;;;;;;;;5026080;28;20048;-77
2021/08/14 03:35:14;;;;;;;5.95;2.35;;;;;;;;;;5024735;28;20041;-75
2021/08/14 03:37:41;;;;;;;;;;;;;;;;;;5026335;28;20041;-75
2021/08/14 03:40:09;;;;;;;4.38;2.50;;;;;;;;;;5025941;28;19982;-77
2021/08/14 03:42:36;;;;;;;5.22;2.35;;;;;;;;;;5024527;28;20049;-75
2021/08/14 03:45:05;;;;;;;3.75;1.90;;;;;;;;;;5025894;28;20042;-75
2021/08/14 03:47:32;;;;;;;4.13;2.00;;;;;;;;;;5025584;28;20043;-76
2021/08/14 03:49:59;;;;;;;7.20;2.35;;;;;;;;;;5026250;28;20048;-79
2021/08/14 03:52:27;;;;;;;4.20;2.00;;;;;;;;;;5007524;28;20037;-75
2021/08/14 03:54:56;;;;;;;6.05;2.50;;;;;;;;;;5025601;28;20136;-76
2021/08/14 03:57:23;;;;;;;4.97;2.13;;;;;;;;;;5025739;28;20075;-76
2021/08/14 03:59:50;;;;;;;5.72;2.30;;;;;;;;;;5025571;28;20037;-76
2021/08/14 04:02:17;;;;;;;7.63;2.67;;;;;;;;;;5025451;28;20053;-76
2021/08/14 04:04:44;;;;;;;7.53;2.20;;;;;;;;;;5026126;28;20041;-76
2021/08/14 04:07:11;;;;;;;5.32;2.00;;;;;;;;;;5017254;28;20073;-76
2021/08/14 04:09:38;;;;;;;5.00;2.35;;;;;;;;;;5036535;28;20041;-76
2021/08/14 04:12:06;;;;;;;4.93;2.20;;;;;;;;;;5025259;28;20037;-76
2021/08/14 04:14:33;;;;;;;7.97;2.75;;;;;;;;;;5024908;28;20044;-76
2021/08/14 04:17:00;;;;;;;4.90;2.20;;;;;;;;;;5024025;28;20041;-77
2021/08/14 04:19:27;;;;;;;7.45;1.95;;;;;;;;;;5025185;28;20447;-75
2021/08/14 04:21:54;;;;;;;5.57;1.67;;;;;;;;;;5025309;28;20042;-77
2021/08/14 04:24:21;;;;;;;6.20;1.50;;;;;;;;;;5025444;28;20068;-77
2021/08/14 04:26:48;;;;;;;3.63;1.60;;;;;;;;;;5023306;28;20426;-76
2021/08/14 04:29:15;;;;;;;3.92;1.70;;;;;;;;;;5023782;28;20038;-76
2021/08/14 04:31:42;;;;;;;5.20;1.95;;;;;;;;;;5024539;28;20454;-76
2021/08/14 04:34:09;;;;;;;4.57;1.90;;;;;;;;;;5024135;28;20107;-76
2021/08/14 04:36:36;;;;;;;6.90;1.90;;;;;;;;;;5023748;28;20108;-76
2021/08/14 04:39:04;;;;;;;6.53;2.15;;;;;;;;;;5024771;28;20037;-75
2021/08/14 04:41:31;;;;;;;9.20;2.45;;;;;;;;;;5023209;28;20566;-76
2021/08/14 04:43:58;;;;;;;7.95;2.90;;;;;;;;;;5023588;28;20042;-76
2021/08/14 04:46:25;;;;;;;7.60;2.55;;;;;;;;;;5023068;28;20041;-76
2021/08/14 04:48:52;;;;;;;6.95;2.88;;;;;;;;;;5025310;28;20038;-76
2021/08/14 04:51:20;;;;;;;6.57;2.83;;;;;;;;;;5023223;28;20057;-76
2021/08/14 04:53:47;;;;;;;6.07;2.60;;;;;;;;;;5024748;28;20128;-77
2021/08/14 04:56:15;;;;;;;7.57;3.63;;;;;;;;;;5024622;28;20137;-78
2021/08/14 04:58:42;;;;;;;5.68;1.95;;;;;;;;;;5024564;28;20077;-75
2021/08/14 05:01:09;;;;;;;5.25;1.92;;;;;;;;;;5024196;28;20045;-77
2021/08/14 05:03:36;;;;;;;5.18;2.08;;;;;;;;;;5006676;28;20042;-76
2021/08/14 05:06:03;;;;;;;8.93;3.65;;;;;;;;;;5022506;28;20037;-76
2021/08/14 05:08:30;;;;;;;11.88;6.25;;;;;;;;;;5024796;28;20037;-76
2021/08/14 05:10:57;;;;;;;12.43;5.30;;;;;;;;;;5024204;28;20388;-76
2021/08/14 05:13:24;;;;;;;5.85;1.80;;;;;;;;;;5024228;28;20099;-77
2021/08/14 05:15:51;;;;;;;3.53;1.60;;;;;;;;;;5023129;28;20038;-75
2021/08/14 05:18:18;;;;;;;7.63;2.33;;;;;;;;;;5024267;28;20087;-76
2021/08/14 05:20:45;;;;;;;5.57;1.90;;;;;;;;;;5022894;28;20041;-76
2021/08/14 05:23:12;;;;;;;3.58;1.35;;;;;;;;;;5024015;28;20045;-75
2021/08/14 05:25:40;;;;;;;3.35;1.63;;;;;;;;;;5023986;28;20041;-76
2021/08/14 05:28:07;;;;;;;5.32;1.95;;;;;;;;;;5006434;28;20049;-75
2021/08/14 05:30:34;;;;;;;4.55;2.60;;;;;;;;;;5023926;28;20385;-75
2021/08/14 05:33:01;;;;;;;4.63;2.05;;;;;;;;;;5024390;28;20033;-76
2021/08/14 05:35:28;;;;;;;3.70;1.80;;;;;;;;;;5023924;28;20033;-76
2021/08/14 05:37:55;;;;;;;5.28;1.95;;;;;;;;;;5022034;28;20056;-77
2021/08/14 05:40:22;;;;;;;3.85;1.70;;;;;;;;;;5006107;28;20102;-76
2021/08/14 05:42:49;;;;;;;5.93;1.50;;;;;;;;;;5023526;28;20060;-76
2021/08/14 05:45:16;;;;;;;6.63;2.13;;;;;;;;;;5023892;28;20049;-76
2021/08/14 05:47:43;;;;;;;2.63;1.45;;;;;;;;;;5023627;28;20065;-76
2021/08/14 05:50:10;;;;;;;3.55;1.35;;;;;;;;;;5005326;28;20071;-76
2021/08/14 05:52:38;;;;;;;5.55;1.90;;;;;;;;;;5023991;28;20057;-76
2021/08/14 05:55:05;;;;;;;3.53;1.67;;;;;;;;;;5023248;28;20495;-76
2021/08/14 05:57:32;;;;;;;3.25;1.40;;;;;;;;;;5023208;28;20065;-76
2021/08/14 05:59:59;;;;;;;3.13;1.58;;;;;;;;;;5021974;28;20064;-76
2021/08/14 06:02:26;;;;;;;3.65;1.98;;;;;;;;;;5005511;28;20045;-76
2021/08/14 06:04:53;;;;;;;4.43;1.58;;;;;;;;;;5023792;28;20511;-76
2021/08/14 06:07:20;;;;;;;5.38;1.92;;;;;;;;;;5023518;28;20037;-76
2021/08/14 06:09:47;;;;;;;4.18;1.60;;;;;;;;;;5022741;28;20108;-76
2021/08/14 06:12:14;;;;;;;4.15;1.58;;;;;;;;;;5023598;28;20066;-76
2021/08/14 06:14:42;;;;;;;4.50;1.73;;;;;;;;;;5023274;28;20041;-76
2021/08/14 06:17:09;;;;;;;3.50;1.80;;;;;;;;;;5022158;28;20037;-75
2021/08/14 06:19:36;;;;;;;5.97;1.98;;;;;;;;;;5023343;28;20038;-76
2021/08/14 06:22:04;;;;;;;7.13;2.97;;;;;;;;;;5022863;28;20554;-77
2021/08/14 06:24:32;;;;;;;6.82;2.35;;;;;;;;;;5023478;28;20045;-76
2021/08/14 06:26:59;;;;;;;7.28;2.58;;;;;;;;;;5022987;28;20499;-76
2021/08/14 06:29:29;;;;;;;6.72;2.10;;;;;;;;;;5023276;28;20090;-76
2021/08/14 06:31:56;;;;;;;4.35;2.08;;;;;;;;;;5021621;28;20120;-76
2021/08/14 06:34:23;;;;;;;6.38;2.60;;;;;;;;;;5023180;28;20037;-76
2021/08/14 06:36:50;;;;;;;8.77;4.10;;;;;;;;;;5022745;28;20511;-78
2021/08/14 06:39:17;;;;;;;7.88;3.30;;;;;;;;;;5023489;28;20038;-75
2021/08/14 06:41:44;;;;;;;6.53;3.47;;;;;;;;;;5022783;28;20045;-76
2021/08/14 06:44:11;;;;;;;6.50;3.25;;;;;;;;;;5023564;28;20034;-75
2021/08/14 06:46:38;;;;;;;6.47;2.58;;;;;;;;;;5022837;28;20045;-76
2021/08/14 06:49:05;;;;;;;3.65;1.60;;;;;;;;;;5022631;28;20048;-77
2021/08/14 06:51:32;;;;;;;6.93;1.70;;;;;;;;;;5023359;28;21104;-75
2021/08/14 06:54:00;;;;;;;4.25;1.30;;;;;;;;;;5020833;28;20117;-75
2021/08/14 06:56:29;;;;;;;4.15;1.42;;;;;;;;;;5023360;28;20060;-78
2021/08/14 06:58:56;;;;;;;6.47;1.88;;;;;;;;;;5027358;28;20095;-76
2021/08/14 07:01:23;;;;;;;7.75;1.75;;;;;;;;;;5008824;28;20045;-76
2021/08/14 07:03:50;;;;;;;4.32;1.73;;;;;;;;;;5008586;28;20046;-76
2021/08/14 07:06:24;;;;;;;5.35;1.63;;;;;;;;;;5025359;28;20049;-76
2021/08/14 07:08:52;;;;;;;4.45;1.90;;;;;;;;;;5026516;28;20059;-75
2021/08/14 07:11:21;;;;;;;5.45;2.00;;;;;;;;;;5024672;28;20109;-77
2021/08/14 07:13:50;;;;;;;5.68;2.33;;;;;;;;;;5025377;28;20041;-76
2021/08/14 07:16:19;;;;;;;3.53;1.80;;;;;;;;;;5026360;28;20068;-76
2021/08/14 07:18:46;;;;;;;5.82;1.70;;;;;;;;;;5024434;28;20488;-76
2021/08/14 07:21:13;;;;;;;7.05;1.63;;;;;;;;;;5024969;28;20034;-77
2021/08/14 07:23:40;;;;;;;4.78;1.95;;;;;;;;;;5024796;28;20065;-76
2021/08/14 07:26:07;;;;;;;5.97;2.80;;;;;;;;;;5026220;28;20480;-76
2021/08/14 07:28:34;;;;;;;8.05;3.63;;;;;;;;;;5024705;28;20049;-76
2021/08/14 07:31:01;;;;;;;8.00;4.25;;;;;;;;;;5026140;28;20037;-76
2021/08/14 07:33:28;;;;;;;9.60;4.97;;;;;;;;;;5026361;28;20068;-77
2021/08/14 07:35:55;;;;;;;11.32;6.10;;;;;;;;;;5026414;28;20040;-78
2021/08/14 07:38:22;;;;;;;9.63;7.13;;;;;;;;;;5023991;28;20526;-77
2021/08/14 07:40:49;;;;;;;10.98;7.55;;;;;;;;;;5026413;28;20125;-75
2021/08/14 07:43:16;;;;;;;15.13;7.70;;;;;;;;;;5024156;28;20042;-75
2021/08/14 07:45:43;;;;;;;15.93;9.02;;;;;;;;;;5026148;28;20033;-75
2021/08/14 07:48:10;;;;;;;14.43;8.55;;;;;;;;;;5024391;28;20052;-78
2021/08/14 07:50:37;;;;;;;10.60;7.10;;;;;;;;;;5025508;28;20049;-78
2021/08/14 07:53:05;;;;;;;9.32;4.55;;;;;;;;;;5027178;28;20037;-75
2021/08/14 07:55:34;;;;;;;7.50;3.97;;;;;;;;;;5029243;28;20056;-75
2021/08/14 07:58:08;;;;;;;10.15;4.80;;;;;;;;;;5026066;28;20045;-77
2021/08/14 08:00:35;;;;;;;8.88;4.55;;;;;;;;;;5025586;28;20049;-77
2021/08/14 08:03:01;;;;;;;10.05;5.10;;;;;;;;;;5023844;28;20540;-76
2021/08/14 08:05:29;;;;;;;9.00;4.80;;;;;;;;;;5007945;28;20048;-75
2021/08/14 08:07:56;;;;;;;8.45;4.50;;;;;;;;;;5023975;28;20041;-76
2021/08/14 08:10:23;;;;;;;9.60;4.43;;;;;;;;;;5023986;28;20081;-74
2021/08/14 08:12:50;;;;;;;9.30;5.22;;;;;;;;;;5024123;28;20499;-74
2021/08/14 08:15:17;;;;;;;10.13;5.22;;;;;;;;;;5025085;28;20176;-79
2021/08/14 08:17:45;;;;;;;8.68;5.00;;;;;;;;;;5025766;28;20126;-75
2021/08/14 08:20:14;;;;;;;8.98;4.47;;;;;;;;;;5025390;28;20037;-75
2021/08/14 08:22:41;;;;;;;10.90;5.15;;;;;;;;;;5023591;28;20415;-78
2021/08/14 08:25:10;;;;;;;10.88;5.38;;;;;;;;;;5024156;28;20491;-75
2021/08/14 08:27:41;;;;;;;9.95;5.40;;;;;;;;;;5025204;28;20045;-78
2021/08/14 08:30:10;;;;;;;10.07;5.32;;;;;;;;;;5025213;28;20518;-75
2021/08/14 08:32:40;;;;;;;12.43;5.18;;;;;;;;;;5025002;28;20046;-79
2021/08/14 08:35:08;;;;;;;11.43;4.72;;;;;;;;;;5024970;28;20049;-75
2021/08/14 08:37:35;;;;;;;10.13;5.88;;;;;;;;;;5025180;28;20042;-75
2021/08/14 08:40:03;;;;;;;12.05;6.75;;;;;;;;;;5023296;28;20499;-76
2021/08/14 08:42:30;;;;;;;11.55;6.78;;;;;;;;;;5024745;28;20053;-75
2021/08/14 08:44:58;;;;;;;11.13;7.10;;;;;;;;;;5025358;28;20033;-75
2021/08/14 08:47:30;;;;;;;15.32;6.60;;;;;;;;;;5024855;28;20095;-77
2021/08/14 08:49:58;;;;;;;14.27;7.75;;;;;;;;;;5024834;28;20099;-76
2021/08/14 08:52:25;;;;;;;;;;;;;;;;;;5023319;28;20037;-75
2021/08/14 08:54:53;;;;;;;12.77;7.55;;;;;;;;;;5025028;28;19991;-76
2021/08/14 08:57:22;;;;;;;13.82;6.65;;;;;;;;;;5023348;28;20042;-76
2021/08/14 08:59:49;;;;;;;;;;;;;;;;;;5024900;28;20042;-76
2021/08/14 09:02:31;;;;;;;10.32;5.70;;;;;;;;;;5024790;28;19990;-76
2021/08/14 09:05:12;;;;;;;11.10;5.57;;;;;;;;;;5024704;28;20042;-76
2021/08/14 09:07:40;;;;;;;11.48;5.57;;;;;;;;;;5022708;28;20064;-75
2021/08/14 09:10:11;;;;;;;12.30;5.78;;;;;;;;;;5024314;28;20523;-76
2021/08/14 09:12:43;;;;;;;8.48;5.28;;;;;;;;;;5022373;28;20056;-78
2021/08/14 09:15:19;;;;;;;11.50;5.22;;;;;;;;;;5007448;28;20048;-77
2021/08/14 09:17:47;;;;;;;10.30;5.18;;;;;;;;;;5016882;28;20413;-75
2021/08/14 09:20:19;;;;;;;10.60;5.72;;;;;;;;;;5003773;28;20092;-76
2021/08/14 09:23:07;;;;;;;21.90;6.25;;;;;;;;;;5004100;28;20485;-76
2021/08/14 09:25:55;;;;;;;11.10;5.95;;;;;;;;;;5004387;28;20042;-75
2021/08/14 09:28:31;;;;;;;10.52;5.97;;;;;;;;;;5002569;28;20038;-75
2021/08/14 09:31:02;;;;;;;10.90;5.72;;;;;;;;;;5004310;28;20041;-76
2021/08/14 09:33:32;;;;;;;14.20;6.50;;;;;;;;;;5004318;28;20062;-76
2021/08/14 09:36:01;;;;;;;9.07;6.05;;;;;;;;;;5003828;28;20042;-76
2021/08/14 09:38:41;;;;;;;10.15;5.82;;;;;;;;;;5007077;28;20500;-76
2021/08/14 09:41:22;;;;;;;11.55;5.75;;;;;;;;;;5004028;28;20042;-75
2021/08/14 09:43:51;;;;;;;11.70;5.93;;;;;;;;;;5030364;28;20136;-76
2021/08/14 09:46:19;;;;;;;12.77;6.05;;;;;;;;;;5021816;28;20518;-76
2021/08/14 09:48:57;;;;;;;11.95;6.03;;;;;;;;;;5022323;28;20539;-76
2021/08/14 09:51:28;;;;;;;11.50;5.75;;;;;;;;;;5016563;28;20037;-77
2021/08/14 09:53:59;;;;;;;11.95;5.97;;;;;;;;;;5003620;28;20504;-75
2021/08/14 09:56:35;;;;;;;10.85;5.47;;;;;;;;;;5003676;28;20057;-76
2021/08/14 09:59:19;;;;;;;15.65;5.68;;;;;;;;;;5042701;27;2236805;-77
2021/08/14 10:01:47;;;;;;;11.85;5.60;;;;;;;;;;5112660;27;20046;-76
2021/08/14 10:04:18;;;;;;;9.32;4.65;;;;;;;;;;5121413;27;20051;-78
2021/08/14 10:06:45;;;;;;;8.27;4.97;;;;;;;;;;5119312;27;20400;-77
2021/08/14 10:09:15;;;;;;;10.93;4.85;;;;;;;;;;5121058;27;20059;-76
2021/08/14 10:11:43;;;;;;;9.90;4.85;;;;;;;;;;5120741;27;20080;-77
2021/08/14 10:14:11;;;;;;;10.07;5.07;;;;;;;;;;5121233;27;20457;-77
2021/08/14 10:16:39;;;;;;;11.68;4.93;;;;;;;;;;5119266;27;20089;-77
2021/08/14 10:19:06;;;;;;;12.10;4.88;;;;;;;;;;5121002;27;20044;-75
2021/08/14 10:21:33;;;;;;;8.73;5.15;;;;;;;;;;5120637;27;20061;-76
2021/08/14 10:24:01;;;;;;;9.88;5.55;;;;;;;;;;5118568;28;20040;-76
2021/08/14 10:26:29;;;;;;;11.10;4.60;;;;;;;;;;5119765;28;20043;-77
2021/08/14 10:28:57;;;;;;;;;;;;;;;;;;5120300;28;20050;-75
2021/08/14 10:31:30;;;;;;;11.60;5.28;;;;;;;;;;5097314;28;20342;-76
2021/08/14 10:34:12;;;;;;;12.45;5.55;;;;;;;;;;5119499;28;20039;-77
2021/08/14 10:36:40;;;;;;;14.90;5.90;;;;;;;;;;5084513;28;20122;-77
2021/08/14 10:39:19;;;;;;;12.70;5.43;;;;;;;;;;5119415;28;20456;-77
2021/08/14 10:41:50;;;;;;;12.20;6.00;;;;;;;;;;5101101;28;20035;-75
2021/08/14 10:44:38;;;;;;;13.98;5.35;;;;;;;;;;5117265;28;20062;-75
2021/08/14 10:47:25;;;;;;;8.15;4.88;;;;;;;;;;5119712;28;20119;-75
2021/08/14 10:49:53;;;;;;;9.30;4.80;;;;;;;;;;5084302;28;20043;-74
2021/08/14 10:52:30;;;;;;;11.50;4.55;;;;;;;;;;5119092;28;20411;-77
2021/08/14 10:54:57;;;;;;;11.80;5.15;;;;;;;;;;5084309;28;20046;-76
2021/08/14 10:57:38;;;;;;;11.43;5.00;;;;;;;;;;5101005;28;20051;-76
2021/08/14 11:00:17;;;;;;;10.93;5.03;;;;;;;;;;5118473;28;20055;-76
2021/08/14 11:03:06;;;;;;;10.45;5.38;;;;;;;;;;5118600;28;20052;-77
2021/08/14 11:05:33;;;;;;;7.93;5.88;;;;;;;;;;5099190;28;20055;-76
2021/08/14 11:08:01;;;;;;;11.43;6.03;;;;;;;;;;5096574;28;20048;-76
2021/08/14 11:10:32;;;;;;;16.30;9.18;;;;;;;;;;5077361;28;20464;-77
2021/08/14 11:13:00;;;;;;;17.25;8.98;;;;;;;;;;5093629;28;20107;-77
2021/08/14 11:15:31;;;;;;;14.93;8.43;;;;;;;;;;5072177;28;20044;-77
2021/08/14 11:18:00;;;;;;;14.27;6.75;;;;;;;;;;5083904;28;20046;-77
2021/08/14 11:20:32;;;;;;;12.80;6.50;;;;;;;;;;5055131;28;20441;-77
2021/08/14 11:23:04;;;;;;;13.63;5.68;;;;;;;;;;5074644;28;20031;-76
2021/08/14 11:25:37;;;;;;;8.98;5.13;;;;;;;;;;5070538;28;20051;-77
2021/08/14 11:28:10;;;;;;;10.88;7.40;;;;;;;;;;5069593;28;20040;-76
2021/08/14 11:30:42;;;;;;;14.35;8.73;;;;;;;;;;5084679;28;20072;-77
2021/08/14 11:33:12;;;;;;;11.35;6.45;;;;;;;;;;5054276;28;20060;-77
2021/08/14 11:35:41;;;;;;;12.63;5.22;;;;;;;;;;5062409;28;20119;-77
2021/08/14 11:38:10;;;;;;;11.63;4.30;;;;;;;;;;5063721;28;20112;-77
2021/08/14 11:40:40;;;;;;;7.85;4.35;;;;;;;;;;5069116;28;20043;-78
2021/08/14 11:43:18;;;;;;;7.90;3.95;;;;;;;;;;5066754;28;20085;-76
2021/08/14 11:45:47;;;;;;;7.28;4.30;;;;;;;;;;5053774;28;20418;-77
2021/08/14 11:48:16;;;;;;;7.97;4.38;;;;;;;;;;5071649;28;20040;-76
2021/08/14 11:50:46;;;;;;;10.48;4.70;;;;;;;;;;5072000;28;20122;-77
2021/08/14 11:53:24;;;;;;;8.98;4.15;;;;;;;;;;5081878;28;20409;-76
2021/08/14 11:56:04;;;;;;;8.85;4.10;;;;;;;;;;5080126;28;20043;-75
2021/08/14 11:58:33;;;;;;;6.78;4.25;;;;;;;;;;5071153;27;20950;-76
2021/08/14 12:01:02;;;;;;;10.82;4.28;;;;;;;;;;5098092;27;20047;-78
2021/08/14 12:03:29;;;;;;;8.18;3.53;;;;;;;;;;5095971;28;20044;-76
2021/08/14 12:06:16;;;;;;;9.23;3.85;;;;;;;;;;5102279;27;20059;-77
2021/08/14 12:08:47;;;;;;;15.75;10.75;;;;;;;;;;5077642;27;20088;-74
2021/08/14 12:11:22;;;;;;;8.85;4.10;;;;;;;;;;5104355;28;20116;-74
2021/08/14 12:13:49;;;;;;;10.43;4.13;;;;;;;;;;5084505;28;20383;-75
2021/08/14 12:16:20;;;;;;;7.68;3.83;;;;;;;;;;5093091;27;20074;-75
2021/08/14 12:18:52;;;;;;;10.95;4.28;;;;;;;;;;5100699;28;20040;-75
2021/08/14 12:21:25;;;;;;;8.02;4.13;;;;;;;;;;5072805;28;20043;-73
2021/08/14 12:24:05;;;;;;;9.57;3.67;;;;;;;;;;5094217;28;20044;-74
2021/08/14 12:26:34;;;;;;;10.20;2.88;;;;;;;;;;5101228;28;20031;-76
2021/08/14 12:29:01;;;;;;;7.45;2.78;;;;;;;;;;5101178;28;20068;-74
2021/08/14 12:31:31;;;;;;;6.95;3.35;;;;;;;;;;5099644;27;20043;-74
2021/08/14 12:33:59;;;;;;;8.88;3.13;;;;;;;;;;5106173;27;20191;-76
2021/08/14 12:36:37;;;;;;;7.10;2.60;;;;;;;;;;5109773;27;20043;-77
2021/08/14 12:39:06;;;;;;;6.88;2.58;;;;;;;;;;5100775;27;20118;-75
2021/08/14 12:41:41;;;;;;;5.82;2.83;;;;;;;;;;5103120;28;20032;-77
2021/08/14 12:44:10;;;;;;;6.75;2.55;;;;;;;;;;5094645;27;20047;-76
2021/08/14 12:46:38;;;;;;;5.18;2.55;;;;;;;;;;5108319;27;20043;-76
2021/08/14 12:49:17;;;;;;;4.35;2.47;;;;;;;;;;5103383;27;20040;-76
2021/08/14 12:52:02;;;;;;;5.22;2.55;;;;;;;;;;5092502;27;20523;-76
2021/08/14 12:54:36;;;;;;;6.38;2.80;;;;;;;;;;5100222;27;20159;-76
2021/08/14 12:57:09;;;;;;;6.80;2.53;;;;;;;;;;5084657;28;20035;-75
2021/08/14 12:59:37;;;;;;;5.13;2.45;;;;;;;;;;5099313;28;20039;-75
2021/08/14 13:02:05;;;;;;;;;;;;;;;;;;5083197;28;20097;-75
2021/08/14 13:04:35;;;;;;;6.10;2.38;;;;;;;;;;5098445;28;19931;-75
2021/08/14 13:07:04;;;;;;;7.63;2.58;;;;;;;;;;5081564;28;20057;-76
2021/08/14 13:09:31;;;;;;;;;;;;;;;;;;5099459;28;20096;-77
2021/08/14 13:11:59;;;;;;;4.72;2.50;;;;;;;;;;5072727;28;19926;-75
2021/08/14 13:14:26;;;;;;;;;;;;;;;;;;5098197;28;20048;-75
2021/08/14 13:16:56;;;;;;;8.18;3.08;;;;;;;;;;5081400;28;20315;-74
2021/08/14 13:19:24;;;;;;;8.40;3.50;;;;;;;;;;5080313;28;20039;-75
2021/08/14 13:21:53;;;;;;;7.45;3.65;;;;;;;;;;5099674;28;20055;-77
2021/08/14 13:24:21;;;;;;;10.57;4.35;;;;;;;;;;5078718;28;20416;-75
2021/08/14 13:26:53;;;;;;;17.63;7.35;;;;;;;;;;5079108;28;20512;-74
2021/08/14 13:29:22;;;;;;;12.70;5.93;;;;;;;;;;5069070;28;20044;-76
2021/08/14 13:31:49;;;;;;;12.18;5.85;;;;;;;;;;5071841;28;20047;-75
2021/08/14 13:34:16;;;;;;;14.02;6.28;;;;;;;;;;5084942;28;20046;-74
2021/08/14 13:36:44;;;;;;;16.10;7.60;;;;;;;;;;5097913;28;20044;-75
2021/08/14 13:39:11;;;;;;;21.10;8.38;;;;;;;;;;5063313;28;20039;-75
2021/08/14 13:41:42;;;;;;;19.52;8.90;;;;;;;;;;5052823;28;20509;-75
2021/08/14 13:44:09;;;;;;;20.48;8.57;;;;;;;;;;5076721;28;20433;-77
2021/08/14 13:46:36;;;;;;;22.25;9.50;;;;;;;;;;5102303;28;20070;-76
2021/08/14 13:49:03;;;;;;;18.83;8.85;;;;;;;;;;5098480;28;20437;-77
2021/08/14 13:51:30;;;;;;;23.77;9.75;;;;;;;;;;5103150;28;20054;-76
2021/08/14 13:54:00;;;;;;;23.48;9.30;;;;;;;;;;5103693;28;20039;-75
2021/08/14 13:56:27;;;;;;;21.95;9.82;;;;;;;;;;5102239;28;20046;-75
2021/08/14 13:58:59;;;;;;;22.58;8.52;;;;;;;;;;5107388;28;20129;-76
2021/08/14 14:01:28;;;;;;;15.57;7.20;;;;;;;;;;5077705;28;20478;-75
2021/08/14 14:03:55;;;;;;;15.80;7.82;;;;;;;;;;5101404;28;20050;-74
2021/08/14 14:06:22;;;;;;;16.73;7.72;;;;;;;;;;5116236;28;20378;-74
2021/08/14 14:08:52;;;;;;;16.88;7.50;;;;;;;;;;5108744;28;20047;-75
2021/08/14 14:11:19;;;;;;;16.95;6.88;;;;;;;;;;5103284;28;20434;-74
2021/08/14 14:13:46;;;;;;;13.30;6.93;;;;;;;;;;5092311;28;20043;-74
2021/08/14 14:16:16;;;;;;;12.18;5.78;;;;;;;;;;5096674;28;20077;-76
2021/08/14 14:18:43;;;;;;;12.23;5.38;;;;;;;;;;5102472;28;20035;-76
2021/08/14 14:21:13;;;;;;;16.88;7.00;;;;;;;;;;5101594;28;20068;-77
2021/08/14 14:23:42;;;;;;;20.23;9.38;;;;;;;;;;5101033;28;20405;-74
2021/08/14 14:26:09;;;;;;;10.48;4.80;;;;;;;;;;5067778;28;20077;-74
2021/08/14 14:28:36;;;;;;;16.15;8.57;;;;;;;;;;5099891;28;20031;-75
2021/08/14 14:31:09;;;;;;;11.10;4.70;;;;;;;;;;5083059;28;20043;-73
2021/08/14 14:33:38;;;;;;;4.85;2.80;;;;;;;;;;5101244;28;20038;-74
2021/08/14 14:36:05;;;;;;;23.67;13.43;;;;;;;;;;5099281;28;20054;-76
2021/08/14 14:38:32;;;;;;;18.70;9.05;;;;;;;;;;5101193;28;20054;-73
2021/08/14 14:40:59;;;;;;;35.38;18.30;;;;;;;;;;5092820;28;20489;-74
2021/08/14 14:43:26;;;;;;;34.47;17.88;;;;;;;;;;5108254;28;20458;-74
2021/08/14 14:45:52;;;;;;;14.07;8.02;;;;;;;;;;5086601;28;20571;-73
2021/08/14 14:48:20;;;;;;;13.25;6.25;;;;;;;;;;5104113;27;20437;-74
2021/08/14 14:50:47;;;;;;;10.50;4.70;;;;;;;;;;5104191;28;20036;-74
2021/08/14 14:53:14;;;;;;;6.60;3.30;;;;;;;;;;5105949;27;20087;-74